Time;durP1;ratioP1;P1;durP2;ratioP2;P2;SDS_P1;SDS_P2;PMS_P1;PMS_P2;Temp;Humidity;BMP_temperature;BMP_pressure;BME280_temperature;BME280_humidity;BME280_pressure;Samples;Min_cycle;Max_cycle;Signal;HPM_P1;HPM_P2
2021/08/03 00:00:00;;;;;;;11.80;7.70;;;;;;;13.58;96.20;99966.72;5017368;28;20112;-69
2021/08/03 00:02:29;;;;;;;12.82;6.63;;;;;;;13.60;96.59;99957.69;5034587;28;20489;-68
2021/08/03 00:04:58;;;;;;;13.27;7.45;;;;;;;13.58;96.13;99961.34;5034984;28;20053;-68
2021/08/03 00:07:27;;;;;;;10.63;7.60;;;;;;;13.67;96.43;99964.31;5034797;28;20057;-67
2021/08/03 00:09:56;;;;;;;10.68;7.75;;;;;;;13.61;95.81;99946.84;5017455;28;20052;-67
2021/08/03 00:12:24;;;;;;;9.43;8.15;;;;;;;13.69;96.12;99965.88;5019214;28;20042;-67
2021/08/03 00:14:53;;;;;;;9.70;7.57;;;;;;;13.64;97.02;99957.34;5054624;28;20057;-67
2021/08/03 00:17:23;;;;;;;9.07;7.45;;;;;;;13.61;97.04;99946.84;5036769;28;20056;-68
2021/08/03 00:19:52;;;;;;;10.17;7.27;;;;;;;13.62;98.65;99956.59;5054587;28;20045;-67
2021/08/03 00:22:22;;;;;;;9.55;7.82;;;;;;;13.56;98.02;99951.69;5037020;28;20095;-67
2021/08/03 00:24:50;;;;;;;13.35;8.18;;;;;;;13.61;97.92;99954.06;5034515;28;20103;-69
2021/08/03 00:27:17;;;;;;;9.75;8.23;;;;;;;13.53;97.92;99954.63;5034663;28;20045;-69
2021/08/03 00:29:44;;;;;;;13.45;8.82;;;;;;;13.59;98.22;99951.47;5034781;28;20426;-68
2021/08/03 00:32:11;;;;;;;11.68;8.05;;;;;;;13.58;99.05;99950.63;5034530;28;20060;-69
2021/08/03 00:34:38;;;;;;;11.00;7.82;;;;;;;13.55;100.00;99929.41;5034462;28;20439;-67
2021/08/03 00:37:09;;;;;;;10.35;8.73;;;;;;;13.54;99.76;99941.13;5034420;28;20049;-68
2021/08/03 00:39:37;;;;;;;10.88;7.72;;;;;;;13.55;100.00;99939.28;5034457;28;20103;-68
2021/08/03 00:42:06;;;;;;;12.18;8.55;;;;;;;13.57;99.95;99942.72;5034416;28;20049;-69
2021/08/03 00:44:40;;;;;;;13.68;8.73;;;;;;;13.56;100.00;99940.97;5035731;28;20398;-67
2021/08/03 00:47:07;;;;;;;11.32;8.57;;;;;;;13.49;100.00;99929.03;5016977;28;20049;-69
2021/08/03 00:49:34;;;;;;;10.52;8.95;;;;;;;13.52;100.00;99936.84;5034487;28;20335;-71
2021/08/03 00:52:02;;;;;;;10.15;9.07;;;;;;;13.46;100.00;99924.78;5034333;28;20041;-67
2021/08/03 00:54:29;;;;;;;12.00;9.10;;;;;;;13.51;100.00;99937.81;5000931;28;20100;-68
2021/08/03 00:56:56;;;;;;;10.93;8.18;;;;;;;13.48;100.00;99932.69;5016653;28;20069;-66
2021/08/03 00:59:23;;;;;;;11.90;8.75;;;;;;;13.46;100.00;99940.00;5034495;28;20053;-69
2021/08/03 01:01:49;;;;;;;10.95;8.90;;;;;;;13.45;100.00;99917.66;5016944;28;20057;-67
2021/08/03 01:04:17;;;;;;;9.98;8.98;;;;;;;13.51;100.00;99924.41;5034274;28;20199;-67
2021/08/03 01:06:51;;;;;;;13.35;8.98;;;;;;;13.52;100.00;99928.81;5034132;28;20053;-68
2021/08/03 01:09:56;;;;;;;13.27;9.50;;;;;;;13.49;100.00;99932.56;5035408;28;20053;-67
2021/08/03 01:12:41;;;;;;;11.65;8.45;;;;;;;13.55;100.00;99933.91;4983580;28;20111;-66
2021/08/03 01:15:14;;;;;;;11.35;9.35;;;;;;;13.50;100.00;99930.75;5057734;28;20136;-67
2021/08/03 01:17:42;;;;;;;11.30;9.48;;;;;;;13.51;100.00;99935.13;5057354;28;20106;-68
2021/08/03 01:20:24;;;;;;;11.98;9.52;;;;;;;13.52;100.00;99926.13;5057612;28;20056;-68
2021/08/03 01:23:27;;;;;;;11.88;9.40;;;;;;;13.52;100.00;99929.63;5020032;28;20084;-68
2021/08/03 01:26:17;;;;;;;14.45;8.75;;;;;;;13.52;100.00;99926.13;5020317;28;20050;-68
2021/08/03 01:28:55;;;;;;;12.02;9.88;;;;;;;13.50;100.00;99928.06;5036457;28;20053;-68
2021/08/03 01:31:27;;;;;;;10.35;8.85;;;;;;;13.52;100.00;99923.44;5020070;28;20107;-68
2021/08/03 01:34:10;;;;;;;11.57;9.73;;;;;;;13.51;100.00;99924.41;5037699;28;20107;-68
2021/08/03 01:36:41;;;;;;;12.18;9.35;;;;;;;13.48;100.00;99919.28;5037523;28;20061;-68
2021/08/03 01:39:08;;;;;;;9.95;8.95;;;;;;;13.55;100.00;99928.53;5037249;28;20053;-68
2021/08/03 01:41:36;;;;;;;14.65;9.57;;;;;;;13.54;100.00;99926.84;5037303;28;20048;-68
2021/08/03 01:44:09;;;;;;;12.90;9.40;;;;;;;13.53;100.00;99919.78;5037048;28;20439;-68
2021/08/03 01:46:36;;;;;;;11.77;9.35;;;;;;;13.53;100.00;99928.69;5037197;28;20045;-68
2021/08/03 01:49:03;;;;;;;15.43;9.82;;;;;;;13.54;100.00;99919.66;5037325;28;20077;-68
2021/08/03 01:51:31;;;;;;;10.15;9.05;;;;;;;13.50;100.00;99910.16;5047067;28;20059;-68
2021/08/03 01:53:59;;;;;;;10.07;9.05;;;;;;;13.59;100.00;99924.66;5049879;28;20053;-68
2021/08/03 01:56:29;;;;;;;12.40;9.05;;;;;;;13.60;100.00;99922.81;5043993;28;20057;-68
2021/08/03 01:58:58;;;;;;;11.52;8.95;;;;;;;13.60;100.00;99912.97;5038562;28;20072;-68
2021/08/03 02:01:25;;;;;;;10.57;8.65;;;;;;;13.60;100.00;99910.28;5041555;28;20057;-68
2021/08/03 02:03:53;;;;;;;16.73;8.75;;;;;;;13.57;100.00;99914.06;5037070;28;20450;-68
2021/08/03 02:06:23;;;;;;;10.20;8.48;;;;;;;13.56;100.00;99909.66;5036849;28;20101;-68
2021/08/03 02:08:54;;;;;;;9.57;8.68;;;;;;;13.52;100.00;99902.00;5029109;28;20045;-68
2021/08/03 02:11:27;;;;;;;12.68;8.85;;;;;;;13.58;100.00;99907.72;5036729;28;20095;-68
2021/08/03 02:13:55;;;;;;;10.38;8.30;;;;;;;13.54;100.00;99910.75;5051721;28;20324;-68
2021/08/03 02:16:22;;;;;;;9.75;8.38;;;;;;;13.53;100.00;99909.91;5056405;28;20096;-68
2021/08/03 02:18:48;;;;;;;12.05;8.90;;;;;;;13.49;100.00;99902.22;5056366;28;20496;-68
2021/08/03 02:21:20;;;;;;;19.13;9.05;;;;;;;13.48;100.00;99903.19;5039830;28;20072;-68
2021/08/03 02:23:47;;;;;;;11.40;9.05;;;;;;;13.52;100.00;99907.34;5036654;28;20115;-68
2021/08/03 02:26:14;;;;;;;12.32;9.25;;;;;;;13.55;100.00;99904.41;5043725;28;20115;-68
2021/08/03 02:28:42;;;;;;;11.60;9.65;;;;;;;13.57;100.00;99905.16;5036588;28;20050;-68
2021/08/03 02:31:30;;;;;;;12.93;9.48;;;;;;;13.55;100.00;99901.72;5036230;28;20107;-68
2021/08/03 02:34:01;;;;;;;9.43;8.23;;;;;;;13.63;100.00;99902.00;5036020;28;20398;-68
2021/08/03 02:36:31;;;;;;;11.27;9.50;;;;;;;13.55;100.00;99891.88;5036084;28;20455;-68
2021/08/03 02:39:03;;;;;;;13.32;9.30;;;;;;;13.60;100.00;99890.66;5036251;28;20450;-68
2021/08/03 02:41:31;;;;;;;10.20;8.18;;;;;;;13.67;100.00;99897.25;5036076;28;20055;-68
2021/08/03 02:44:00;;;;;;;10.25;8.60;;;;;;;13.66;100.00;99899.09;5035887;28;20053;-68
2021/08/03 02:46:28;;;;;;;11.38;8.88;;;;;;;13.64;100.00;99893.00;5034903;28;20127;-68
2021/08/03 02:49:16;;;;;;;9.75;7.57;;;;;;;13.59;100.00;99884.44;5018431;28;20499;-68
2021/08/03 02:51:44;;;;;;;9.55;7.97;;;;;;;13.59;100.00;99892.50;5036173;28;20049;-68
2021/08/03 02:54:31;;;;;;;12.13;7.40;;;;;;;13.56;100.00;99888.22;5035761;28;20397;-68
2021/08/03 02:57:02;;;;;;;10.63;7.90;;;;;;;13.60;100.00;99887.97;5051022;28;20346;-68
2021/08/03 02:59:34;;;;;;;15.15;7.90;;;;;;;13.61;100.00;99885.16;5054378;28;20061;-68
2021/08/03 03:02:06;;;;;;;10.80;8.13;;;;;;;13.66;100.00;99879.44;5021179;28;20045;-68
2021/08/03 03:04:36;;;;;;;8.90;8.00;;;;;;;13.69;100.00;99879.22;5042077;28;20053;-68
2021/08/03 03:07:18;;;;;;;10.32;7.88;;;;;;;13.64;100.00;99881.41;5035913;28;20049;-68
2021/08/03 03:09:46;;;;;;;15.75;8.18;;;;;;;13.70;100.00;99883.59;5018516;28;20107;-68
2021/08/03 03:12:14;;;;;;;11.18;7.63;;;;;;;13.68;100.00;99878.34;5035380;28;20107;-68
2021/08/03 03:14:44;;;;;;;9.70;7.68;;;;;;;13.73;100.00;99885.19;5018169;28;20096;-68
2021/08/03 03:17:14;;;;;;;9.02;7.97;;;;;;;13.71;100.00;99874.56;5035299;28;20139;-68
2021/08/03 03:19:42;;;;;;;11.75;8.38;;;;;;;13.70;100.00;99868.38;5035293;28;20134;-68
2021/08/03 03:22:09;;;;;;;10.23;7.93;;;;;;;13.68;100.00;99859.56;5050988;28;20139;-68
2021/08/03 03:24:38;;;;;;;8.38;7.57;;;;;;;13.73;100.00;99855.69;5055478;28;20049;-69
2021/08/03 03:27:05;;;;;;;11.20;8.05;;;;;;;13.76;100.00;99866.16;5055107;28;20099;-70
2021/08/03 03:29:36;;;;;;;10.48;8.02;;;;;;;13.66;100.00;99856.16;5054943;28;20100;-69
2021/08/03 03:32:03;;;;;;;;;;;;;;;13.73;100.00;99866.41;5055148;28;20049;-68
2021/08/03 03:34:32;;;;;;;8.65;7.85;;;;;;;13.67;100.00;99857.88;5053418;28;20384;-70
2021/08/03 03:36:59;;;;;;;9.25;7.72;;;;;;;13.67;100.00;99846.31;5055021;28;20053;-70
2021/08/03 03:39:27;;;;;;;8.85;7.93;;;;;;;13.70;100.00;99857.66;5021051;28;20048;-70
2021/08/03 03:42:01;;;;;;;11.63;8.27;;;;;;;13.71;100.00;99847.75;5054944;28;20103;-70
2021/08/03 03:44:29;;;;;;;8.82;8.00;;;;;;;13.66;100.00;99840.09;5037959;28;20061;-69
2021/08/03 03:47:04;;;;;;;8.25;7.40;;;;;;;13.73;100.00;99845.78;5055045;28;20056;-67
2021/08/03 03:49:35;;;;;;;9.35;7.95;;;;;;;13.74;100.00;99854.72;5054873;28;20065;-68
2021/08/03 03:52:04;;;;;;;10.38;8.00;;;;;;;13.65;100.00;99846.44;5054824;28;20057;-68
2021/08/03 03:54:36;;;;;;;11.07;8.32;;;;;;;13.73;100.00;99851.16;5054609;28;20048;-70
2021/08/03 03:57:05;;;;;;;12.00;7.65;;;;;;;13.71;100.00;99855.81;5054662;28;20045;-69
2021/08/03 03:59:33;;;;;;;11.30;7.70;;;;;;;13.68;100.00;99848.84;5036903;28;20122;-70
2021/08/03 04:02:03;;;;;;;11.30;7.88;;;;;;;13.68;100.00;99856.06;5054451;28;20429;-68
2021/08/03 04:04:32;;;;;;;8.43;7.63;;;;;;;13.66;100.00;99855.31;5041563;28;20123;-70
2021/08/03 04:07:00;;;;;;;10.55;8.60;;;;;;;13.67;100.00;99862.41;5034646;28;20462;-68
2021/08/03 04:09:26;;;;;;;12.55;8.40;;;;;;;13.63;100.00;99855.56;5034911;28;20427;-70
2021/08/03 04:11:53;;;;;;;15.15;8.95;;;;;;;13.55;100.00;99859.69;5034345;28;20053;-67
2021/08/03 04:14:25;;;;;;;9.68;7.82;;;;;;;13.53;100.00;99858.97;5034384;28;20054;-69
2021/08/03 04:16:53;;;;;;;9.57;8.57;;;;;;;13.56;100.00;99866.78;5034352;28;20061;-70
2021/08/03 04:19:20;;;;;;;10.95;8.52;;;;;;;13.52;100.00;99853.72;5034384;28;20053;-68
2021/08/03 04:21:47;;;;;;;9.98;8.98;;;;;;;13.48;100.00;99849.56;5047357;28;20053;-69
2021/08/03 04:24:15;;;;;;;11.40;8.60;;;;;;;13.54;100.00;99858.00;5036576;28;20098;-69
2021/08/03 04:26:43;;;;;;;10.15;8.10;;;;;;;13.49;100.00;99849.47;5036518;28;20045;-70
2021/08/03 04:29:10;;;;;;;10.45;8.27;;;;;;;13.49;100.00;99851.28;5036889;28;20044;-70
2021/08/03 04:31:37;;;;;;;12.80;8.48;;;;;;;13.44;100.00;99847.09;5054291;28;20438;-67
2021/08/03 04:34:04;;;;;;;10.95;9.35;;;;;;;13.50;100.00;99850.31;5036674;28;20056;-67
2021/08/03 04:36:30;;;;;;;14.02;9.65;;;;;;;13.50;100.00;99858.38;5036631;28;20106;-67
2021/08/03 04:38:57;;;;;;;12.00;9.45;;;;;;;13.54;100.00;99860.69;5054178;28;20049;-68
2021/08/03 04:41:23;;;;;;;10.85;9.25;;;;;;;13.52;100.00;99857.25;5054029;28;20438;-67
2021/08/03 04:43:50;;;;;;;12.95;9.48;;;;;;;13.47;100.00;99853.22;5055006;28;20107;-68
2021/08/03 04:46:17;;;;;;;11.90;9.80;;;;;;;13.44;100.00;99846.25;5058056;28;20053;-69
2021/08/03 04:48:43;;;;;;;13.25;10.02;;;;;;;13.48;100.00;99858.47;5058466;28;20060;-66
2021/08/03 04:51:10;;;;;;;11.82;10.10;;;;;;;13.43;100.00;99850.78;5057804;28;20122;-66
2021/08/03 04:53:37;;;;;;;12.05;9.40;;;;;;;13.47;100.00;99856.78;5058052;28;20049;-66
2021/08/03 04:56:03;;;;;;;12.35;10.50;;;;;;;13.47;100.00;99862.13;5057532;28;20087;-68
2021/08/03 04:58:30;;;;;;;13.20;9.77;;;;;;;13.47;100.00;99859.47;5058133;28;20053;-69
2021/08/03 05:00:57;;;;;;;12.80;9.73;;;;;;;13.48;100.00;99862.97;5037752;28;20054;-67
2021/08/03 05:03:23;;;;;;;15.40;10.20;;;;;;;13.47;100.00;99866.63;5054481;28;20422;-67
2021/08/03 05:05:50;;;;;;;11.55;10.10;;;;;;;13.39;100.00;99838.56;5059769;28;20057;-69
2021/08/03 05:08:17;;;;;;;13.25;10.10;;;;;;;13.51;100.00;99874.31;5057076;28;20061;-70
2021/08/03 05:10:43;;;;;;;12.77;10.35;;;;;;;13.50;100.00;99869.94;5048792;28;20053;-69
2021/08/03 05:13:10;;;;;;;11.45;10.25;;;;;;;13.50;100.00;99866.41;5037276;28;20050;-69
2021/08/03 05:15:37;;;;;;;13.80;9.57;;;;;;;13.52;100.00;99869.81;5033808;28;20107;-67
2021/08/03 05:18:04;;;;;;;13.32;10.20;;;;;;;13.49;100.00;99870.91;5056967;28;20061;-69
2021/08/03 05:20:31;;;;;;;12.13;10.50;;;;;;;13.47;100.00;99872.00;5055558;28;20045;-69
2021/08/03 05:23:01;;;;;;;14.55;10.80;;;;;;;13.41;100.00;99852.69;5036707;28;20057;-71
2021/08/03 05:25:27;;;;;;;14.65;10.40;;;;;;;13.51;100.00;99868.94;5055748;28;20429;-70
2021/08/03 05:27:54;;;;;;;15.15;9.90;;;;;;;13.48;100.00;99862.97;5056894;28;20087;-72
2021/08/03 05:30:21;;;;;;;13.00;10.68;;;;;;;13.50;100.00;99874.44;5056237;28;20392;-71
2021/08/03 05:32:47;;;;;;;15.98;10.20;;;;;;;13.48;100.00;99873.69;5057125;28;20118;-72
2021/08/03 05:35:14;;;;;;;12.60;9.85;;;;;;;13.47;100.00;99872.00;5055939;28;20386;-71
2021/08/03 05:37:40;;;;;;;11.85;9.57;;;;;;;13.48;100.00;99869.19;5039012;28;20511;-71
2021/08/03 05:40:12;;;;;;;12.82;9.68;;;;;;;13.45;100.00;99858.66;5054901;28;20106;-71
2021/08/03 05:42:40;;;;;;;12.77;9.77;;;;;;;13.56;100.00;99844.44;5058713;28;20068;-70
2021/08/03 05:45:08;;;;;;;11.95;10.10;;;;;;;13.56;100.00;99834.59;5069658;28;20084;-71
2021/08/03 05:47:35;;;;;;;13.48;10.00;;;;;;;13.52;100.00;99827.75;5066997;28;20110;-71
2021/08/03 05:50:03;;;;;;;14.10;9.70;;;;;;;13.52;100.00;99843.00;5039623;28;20058;-69
2021/08/03 05:52:30;;;;;;;13.57;9.57;;;;;;;13.53;100.00;99834.84;5058038;28;20056;-71
2021/08/03 05:54:57;;;;;;;13.60;9.50;;;;;;;13.57;100.00;99847.03;5058743;28;20115;-72
2021/08/03 05:57:23;;;;;;;12.40;10.30;;;;;;;13.55;100.00;99837.38;5058169;28;20053;-69
2021/08/03 05:59:52;;;;;;;17.63;10.70;;;;;;;13.60;100.00;99845.94;5056029;28;20052;-72
2021/08/03 06:02:19;;;;;;;12.25;10.20;;;;;;;13.64;100.00;99839.34;5056285;28;20115;-70
2021/08/03 06:04:45;;;;;;;13.52;9.63;;;;;;;13.64;100.00;99835.81;5056251;28;20044;-70
2021/08/03 06:07:14;;;;;;;11.43;8.52;;;;;;;13.66;100.00;99828.50;5038972;28;20048;-68
2021/08/03 06:09:42;;;;;;;12.48;8.95;;;;;;;13.67;100.00;99827.53;5061187;28;20048;-70
2021/08/03 06:12:10;;;;;;;15.88;9.43;;;;;;;13.67;100.00;99828.38;5051250;28;20049;-70
2021/08/03 06:14:42;;;;;;;14.80;9.63;;;;;;;13.64;100.00;99836.69;5056111;28;20057;-71
2021/08/03 06:17:13;;;;;;;16.15;9.85;;;;;;;13.68;100.00;99830.06;5055704;28;20353;-69
2021/08/03 06:19:50;;;;;;;14.40;9.85;;;;;;;13.57;100.00;99803.28;5055154;28;20056;-70
2021/08/03 06:22:18;;;;;;;14.73;9.80;;;;;;;13.67;100.00;99831.06;5039517;28;20063;-84
2021/08/03 06:24:50;;;;;;;13.80;9.40;;;;;;;13.61;100.00;99818.13;5060651;28;20496;-72
2021/08/03 06:27:19;;;;;;;11.73;9.23;;;;;;;13.67;100.00;99824.84;5054824;28;20053;-70
2021/08/03 06:29:48;;;;;;;14.88;11.00;;;;;;;13.71;100.00;99824.47;5055102;28;20098;-69
2021/08/03 06:32:15;;;;;;;13.35;11.18;;;;;;;13.73;100.00;99824.34;5054331;28;20049;-68
2021/08/03 06:34:43;;;;;;;12.48;11.27;;;;;;;13.72;100.00;99822.63;5037697;28;20045;-69
2021/08/03 06:37:11;;;;;;;13.65;10.73;;;;;;;13.70;100.00;99819.25;5037326;28;20099;-69
2021/08/03 06:39:38;;;;;;;11.85;9.75;;;;;;;13.73;100.00;99831.56;5055184;28;20315;-71
2021/08/03 06:42:08;;;;;;;13.52;10.82;;;;;;;13.78;100.00;99834.72;5056144;28;20194;-70
2021/08/03 06:44:43;;;;;;;13.15;10.65;;;;;;;13.79;100.00;99836.44;5056730;28;20343;-68
2021/08/03 06:47:12;;;;;;;13.10;10.73;;;;;;;13.82;100.00;99833.47;5059290;28;20049;-69
2021/08/03 06:49:43;;;;;;;16.35;11.35;;;;;;;13.83;100.00;99835.19;5058211;28;20088;-68
2021/08/03 06:52:13;;;;;;;18.63;10.82;;;;;;;13.85;100.00;99844.81;5056192;28;20045;-69
2021/08/03 06:54:48;;;;;;;15.77;9.68;;;;;;;13.76;100.00;99840.19;5061006;28;20052;-67
2021/08/03 06:57:16;;;;;;;11.60;10.18;;;;;;;13.80;100.00;99840.81;5059058;28;20114;-73
2021/08/03 06:59:50;;;;;;;12.07;9.93;;;;;;;13.81;100.00;99837.16;5039918;28;20045;-75
2021/08/03 07:02:26;;;;;;;13.88;10.27;;;;;;;13.84;100.00;99837.75;5054877;28;20052;-73
2021/08/03 07:04:56;;;;;;;12.02;10.05;;;;;;;13.82;100.00;99838.84;5054895;28;20127;-72
2021/08/03 07:07:24;;;;;;;12.85;10.05;;;;;;;13.86;100.00;99829.59;5055058;28;20057;-67
2021/08/03 07:09:53;;;;;;;11.15;9.65;;;;;;;13.81;100.00;99826.41;5037789;28;20357;-71
2021/08/03 07:12:21;;;;;;;15.60;10.88;;;;;;;13.85;100.00;99830.56;5049198;28;20091;-69
2021/08/03 07:14:50;;;;;;;12.73;11.45;;;;;;;13.89;100.00;99829.34;5037278;28;20051;-70
2021/08/03 07:17:18;;;;;;;14.25;11.65;;;;;;;13.90;100.00;99828.34;5053844;28;20111;-69
2021/08/03 07:19:45;;;;;;;15.68;10.52;;;;;;;13.95;100.00;99834.22;5059690;28;20140;-72
2021/08/03 07:22:16;;;;;;;13.70;10.93;;;;;;;14.05;100.00;99830.81;5060429;28;20142;-74
2021/08/03 07:24:45;;;;;;;12.18;9.63;;;;;;;13.96;100.00;99829.72;5060852;28;20429;-67
2021/08/03 07:27:13;;;;;;;13.25;10.35;;;;;;;13.89;100.00;99833.88;5054287;28;20045;-67
2021/08/03 07:29:40;;;;;;;11.73;9.95;;;;;;;13.90;100.00;99833.72;5054957;28;20385;-70
2021/08/03 07:32:08;;;;;;;13.23;10.63;;;;;;;13.95;100.00;99838.75;5054456;28;20075;-69
2021/08/03 07:34:42;;;;;;;13.43;11.63;;;;;;;13.91;100.00;99815.81;5052339;28;20040;-69
2021/08/03 07:37:09;;;;;;;14.40;11.10;;;;;;;14.03;100.00;99828.22;5035321;28;20454;-68
2021/08/03 07:39:37;;;;;;;16.23;11.07;;;;;;;14.15;100.00;99822.84;5054190;28;20186;-69
2021/08/03 07:42:06;;;;;;;12.50;11.23;;;;;;;14.22;100.00;99821.38;5054202;28;20052;-69
2021/08/03 07:44:33;;;;;;;11.65;10.45;;;;;;;14.31;100.00;99819.75;5054116;28;20057;-70
2021/08/03 07:47:00;;;;;;;12.18;10.43;;;;;;;14.32;100.00;99813.41;5037091;28;20061;-67
2021/08/03 07:49:27;;;;;;;14.00;10.60;;;;;;;14.26;100.00;99812.94;5037134;28;20357;-70
2021/08/03 07:51:54;;;;;;;16.70;11.50;;;;;;;14.33;100.00;99817.81;5053731;28;20075;-70
2021/08/03 07:54:20;;;;;;;15.07;11.73;;;;;;;14.32;100.00;99814.25;5038571;28;20045;-68
2021/08/03 07:56:47;;;;;;;15.02;11.45;;;;;;;14.33;100.00;99813.25;5039931;28;20060;-69
2021/08/03 07:59:14;;;;;;;18.50;11.02;;;;;;;14.41;100.00;99809.97;5053944;28;20102;-70
2021/08/03 08:01:40;;;;;;;13.93;10.30;;;;;;;14.41;100.00;99820.69;5020490;28;20402;-68
2021/08/03 08:04:08;;;;;;;17.75;10.60;;;;;;;14.37;100.00;99812.03;5033348;28;20049;-68
2021/08/03 08:06:34;;;;;;;13.60;9.90;;;;;;;14.39;100.00;99825.34;5017415;28;20096;-69
2021/08/03 08:09:16;;;;;;;14.43;10.90;;;;;;;14.42;100.00;99819.72;5040989;28;20134;-71
2021/08/03 08:11:42;;;;;;;13.13;10.77;;;;;;;14.42;100.00;99819.72;5036715;28;20375;-70
2021/08/03 08:14:09;;;;;;;13.90;11.75;;;;;;;14.44;100.00;99825.78;5054203;28;20319;-67
2021/08/03 08:16:36;;;;;;;14.45;11.10;;;;;;;14.45;100.00;99829.34;5054070;28;20061;-70
2021/08/03 08:19:03;;;;;;;19.88;12.20;;;;;;;14.37;100.00;99821.91;5053598;28;20053;-69
2021/08/03 08:21:33;;;;;;;13.85;11.80;;;;;;;14.40;100.00;99821.69;5042852;28;20053;-68
2021/08/03 08:24:04;;;;;;;20.05;10.98;;;;;;;14.32;100.00;99808.03;5017428;28;20084;-67
2021/08/03 08:26:31;;;;;;;18.67;12.88;;;;;;;14.34;100.00;99816.81;5034445;28;20049;-70
2021/08/03 08:28:58;;;;;;;17.35;11.85;;;;;;;14.32;100.00;99816.09;5034222;28;20057;-69
2021/08/03 08:31:24;;;;;;;16.15;13.27;;;;;;;14.33;100.00;99807.06;5033255;28;20131;-68
2021/08/03 08:33:51;;;;;;;17.13;12.88;;;;;;;14.44;100.00;99822.28;5033948;28;20104;-70
2021/08/03 08:36:18;;;;;;;15.23;12.95;;;;;;;14.42;100.00;99825.09;5045774;28;20084;-69
2021/08/03 08:38:44;;;;;;;18.35;14.63;;;;;;;14.41;100.00;99820.69;5036401;28;20088;-69
2021/08/03 08:41:14;;;;;;;15.85;13.40;;;;;;;14.37;100.00;99813.88;5054046;28;20426;-70
2021/08/03 08:43:41;;;;;;;16.63;13.87;;;;;;;14.36;100.00;99812.16;5054139;28;20079;-69
2021/08/03 08:46:14;;;;;;;19.65;14.15;;;;;;;14.39;100.00;99814.63;5054337;28;20076;-70
2021/08/03 08:48:42;;;;;;;23.27;14.10;;;;;;;14.36;100.00;99813.03;5053947;28;20132;-67
2021/08/03 08:51:09;;;;;;;19.15;13.63;;;;;;;14.38;100.00;99813.75;5053615;28;20438;-69
2021/08/03 08:53:36;;;;;;;18.08;13.43;;;;;;;14.23;100.00;99789.00;5054076;28;20048;-69
2021/08/03 08:56:04;;;;;;;19.58;12.73;;;;;;;14.35;100.00;99807.78;5054077;28;20052;-68
2021/08/03 08:58:32;;;;;;;15.75;13.88;;;;;;;14.22;100.00;99803.41;5053922;28;20091;-68
2021/08/03 09:01:00;;;;;;;19.83;13.57;;;;;;;14.21;100.00;99803.53;5053684;28;20110;-69
2021/08/03 09:03:29;;;;;;;18.33;14.07;;;;;;;14.20;100.00;99804.50;5053866;28;20051;-68
2021/08/03 09:05:59;;;;;;;22.10;14.32;;;;;;;14.20;100.00;99802.69;5053970;28;20059;-69
2021/08/03 09:08:34;;;;;;;17.25;13.93;;;;;;;14.15;100.00;99807.59;5053720;28;20434;-69
2021/08/03 09:11:15;;;;;;;20.08;14.88;;;;;;;14.13;100.00;99798.81;5053835;28;20056;-68
2021/08/03 09:14:02;;;;;;;20.55;16.02;;;;;;;14.14;100.00;99805.88;5053619;28;20056;-67
2021/08/03 09:16:46;;;;;;;21.25;16.98;;;;;;;14.10;100.00;99804.41;5053681;28;20057;-68
2021/08/03 09:19:37;;;;;;;19.55;14.65;;;;;;;14.03;100.00;99805.91;5053674;28;20053;-67
2021/08/03 09:22:28;;;;;;;20.55;15.82;;;;;;;14.00;100.00;99812.38;5036516;28;20052;-70
2021/08/03 09:25:18;;;;;;;18.98;14.98;;;;;;;13.99;100.00;99792.75;5053797;28;20049;-70
2021/08/03 09:27:47;;;;;;;20.08;14.82;;;;;;;14.07;100.00;99796.63;5054003;28;20111;-68
2021/08/03 09:30:17;;;;;;;18.00;12.68;;;;;;;14.06;100.00;99805.66;5054890;28;20119;-69
2021/08/03 09:32:45;;;;;;;16.73;12.48;;;;;;;14.06;100.00;99808.34;5057197;28;20049;-69
2021/08/03 09:35:19;;;;;;;20.98;14.52;;;;;;;14.08;100.00;99809.06;5040051;28;20045;-67
2021/08/03 09:37:46;;;;;;;20.27;14.90;;;;;;;14.08;100.00;99811.75;5057812;28;20056;-70
2021/08/03 09:40:26;;;;;;;16.67;14.68;;;;;;;14.13;100.00;99810.38;5057550;28;20048;-67
2021/08/03 09:42:59;;;;;;;20.98;15.75;;;;;;;14.11;100.00;99803.47;5039834;28;20342;-69
2021/08/03 09:45:26;;;;;;;18.35;15.52;;;;;;;14.17;100.00;99805.63;5056906;28;20045;-68
2021/08/03 09:48:06;;;;;;;18.70;15.45;;;;;;;14.18;100.00;99807.34;5057261;28;20106;-68
2021/08/03 09:50:50;;;;;;;19.13;14.75;;;;;;;14.22;100.00;99797.22;5057038;28;20496;-69
2021/08/03 09:53:35;;;;;;;16.58;12.73;;;;;;;14.22;100.00;99806.09;5039587;28;20052;-69
2021/08/03 09:56:03;;;;;;;20.17;15.00;;;;;;;14.24;100.00;99803.31;5056769;28;20052;-67
2021/08/03 09:58:31;;;;;;;19.40;13.23;;;;;;;14.23;100.00;99799.75;5056873;28;20053;-68
2021/08/03 10:01:35;;;;;;;17.67;14.15;;;;;;;14.21;100.00;99798.16;5056837;28;20060;-69
2021/08/03 10:04:05;;;;;;;16.38;14.25;;;;;;;14.36;100.00;99804.97;5056667;28;20127;-67
2021/08/03 10:06:33;;;;;;;19.07;14.83;;;;;;;14.48;100.00;99792.34;5044124;28;20054;-68
2021/08/03 10:09:01;;;;;;;15.38;13.77;;;;;;;14.62;100.00;99795.72;5036892;28;20061;-67
2021/08/03 10:11:27;;;;;;;15.57;12.20;;;;;;;14.64;100.00;99791.91;5018994;28;20435;-68
2021/08/03 10:13:55;;;;;;;16.95;13.82;;;;;;;14.73;100.00;99789.44;5036469;28;20045;-67
2021/08/03 10:16:23;;;;;;;17.05;14.10;;;;;;;14.88;100.00;99788.16;5036068;28;20056;-70
2021/08/03 10:18:53;;;;;;;19.67;14.43;;;;;;;15.04;100.00;99789.53;5036580;28;20140;-69
2021/08/03 10:21:22;;;;;;;15.85;14.23;;;;;;;15.19;100.00;99784.66;5045567;28;20103;-67
2021/08/03 10:23:50;;;;;;;16.80;14.18;;;;;;;15.32;100.00;99779.91;5056408;28;20076;-69
2021/08/03 10:26:17;;;;;;;15.57;12.35;;;;;;;15.32;100.00;99779.91;5056168;28;20052;-69
2021/08/03 10:28:44;;;;;;;14.82;13.25;;;;;;;15.31;100.00;99788.97;5038597;28;20053;-68
2021/08/03 10:31:40;;;;;;;16.42;13.45;;;;;;;15.39;100.00;99787.47;5055833;28;20049;-68
2021/08/03 10:34:07;;;;;;;15.18;13.13;;;;;;;15.49;100.00;99785.69;5056179;28;20052;-68
2021/08/03 10:36:36;;;;;;;14.23;12.73;;;;;;;15.37;100.00;99784.06;5056184;28;20060;-68
2021/08/03 10:39:12;;;;;;;15.98;12.98;;;;;;;15.29;100.00;99769.44;5055908;28;20053;-69
2021/08/03 10:41:57;;;;;;;15.75;13.82;;;;;;;15.44;100.00;99782.53;5038790;28;20114;-70
2021/08/03 10:44:37;;;;;;;15.68;14.07;;;;;;;15.52;100.00;99785.38;5056242;28;20045;-70
2021/08/03 10:47:04;;;;;;;15.80;13.67;;;;;;;15.48;100.00;99787.50;5038311;28;20094;-70
2021/08/03 10:50:26;;;;;;;16.60;14.60;;;;;;;15.48;100.00;99773.22;5055613;28;20335;-70
2021/08/03 10:52:54;;;;;;;16.58;14.90;;;;;;;15.56;100.00;99776.06;5053659;28;20159;-69
2021/08/03 10:55:41;;;;;;;17.13;15.25;;;;;;;15.77;100.00;99771.59;5055903;28;20041;-70
2021/08/03 10:58:10;;;;;;;16.02;14.02;;;;;;;16.00;100.00;99772.25;5055354;28;20457;-69
2021/08/03 11:00:49;;;;;;;15.35;13.85;;;;;;;16.09;100.00;99762.50;5055851;28;20052;-68
2021/08/03 11:03:34;;;;;;;20.63;13.95;;;;;;;16.37;100.00;99773.44;5037931;28;20080;-70
2021/08/03 11:06:04;;;;;;;15.13;12.85;;;;;;;16.49;100.00;99766.06;5046727;28;20049;-68
2021/08/03 11:08:32;;;;;;;15.95;12.35;;;;;;;16.52;100.00;99763.94;5035398;28;20505;-69
2021/08/03 11:11:23;;;;;;;16.10;14.32;;;;;;;16.59;100.00;99766.91;5018393;28;20116;-70
2021/08/03 11:14:04;;;;;;;16.02;14.23;;;;;;;16.54;99.75;99763.78;5024371;28;20133;-69
2021/08/03 11:16:31;;;;;;;13.35;11.85;;;;;;;16.61;100.00;99762.22;5035558;28;20064;-69
2021/08/03 11:19:01;;;;;;;16.60;13.23;;;;;;;16.82;100.00;99767.47;5018174;28;20060;-69
2021/08/03 11:21:30;;;;;;;13.05;11.18;;;;;;;16.74;100.00;99758.41;5045748;28;20110;-71
2021/08/03 11:24:14;;;;;;;14.02;11.82;;;;;;;16.49;100.00;99760.69;5055332;28;20469;-68
2021/08/03 11:26:58;;;;;;;15.32;12.57;;;;;;;16.37;100.00;99765.34;5055697;28;20111;-69
2021/08/03 11:29:37;;;;;;;13.82;12.43;;;;;;;16.43;100.00;99770.19;5055043;28;20438;-71